Time;durP1;ratioP1;P1;durP2;ratioP2;P2;SDS_P1;SDS_P2;PMS_P1;PMS_P2;Temp;Humidity;BMP_temperature;BMP_pressure;BME280_temperature;BME280_humidity;BME280_pressure;Samples;Min_cycle;Max_cycle;Signal;HPM_P1;HPM_P2
2022/01/08 00:02:25;;;;;;;25.10;10.80;;;;;;;-1.02;57.74;92389.28;2075559;69;20501;-69
2022/01/08 00:04:51;;;;;;;20.95;10.57;;;;;;;-1.02;58.20;92384.50;2075316;69;20144;-85
2022/01/08 00:07:16;;;;;;;22.90;11.25;;;;;;;-1.06;57.17;92391.66;2072309;69;20140;-70
2022/01/08 00:09:42;;;;;;;20.52;10.63;;;;;;;-1.07;56.63;92390.19;2075341;69;20671;-80
2022/01/08 00:12:08;;;;;;;21.15;11.13;;;;;;;-1.18;57.90;92382.94;2075309;69;20144;-85
2022/01/08 00:14:33;;;;;;;22.25;10.75;;;;;;;-1.27;58.08;92394.47;2075342;69;20167;-73
2022/01/08 00:16:59;;;;;;;22.02;10.27;;;;;;;-1.19;57.67;92400.03;2075509;69;20167;-86
2022/01/08 00:19:25;;;;;;;19.20;9.32;;;;;;;-1.18;58.50;92380.16;2071883;69;20198;-85
2022/01/08 00:21:51;;;;;;;19.65;9.35;;;;;;;-1.14;57.26;92388.84;2075373;69;20593;-82
2022/01/08 00:24:17;;;;;;;18.92;9.48;;;;;;;-1.14;57.12;92391.63;2075733;69;20159;-75
2022/01/08 00:26:42;;;;;;;22.88;9.85;;;;;;;-1.21;57.16;92386.03;2075443;69;20195;-79
2022/01/08 00:29:08;;;;;;;22.77;9.70;;;;;;;-1.30;57.61;92393.53;2072008;69;20176;-83
2022/01/08 00:31:36;;;;;;;24.13;10.82;;;;;;;-1.30;58.20;92395.56;2075194;69;20583;-78
2022/01/08 00:34:02;;;;;;;22.23;10.63;;;;;;;-1.41;58.22;92391.06;2075148;69;20136;-78
2022/01/08 00:36:27;;;;;;;23.05;10.93;;;;;;;-1.35;58.04;92394.41;2075213;69;20143;-69
2022/01/08 00:38:53;;;;;;;21.85;10.02;;;;;;;-1.31;58.37;92396.84;2075215;69;20166;-68
2022/01/08 00:41:18;;;;;;;21.88;10.02;;;;;;;-1.57;57.85;92390.19;2075228;69;20213;-68
2022/01/08 00:43:44;;;;;;;20.02;9.60;;;;;;;-1.46;58.05;92391.22;2075396;69;20147;-70
2022/01/08 00:46:09;;;;;;;20.25;9.88;;;;;;;-1.62;59.15;92393.81;2075193;69;20174;-70
2022/01/08 00:48:35;;;;;;;24.33;10.57;;;;;;;-1.57;58.31;92392.22;2075150;69;20155;-78
2022/01/08 00:51:01;;;;;;;22.95;10.05;;;;;;;-1.56;58.11;92397.22;2075142;69;20156;-71
2022/01/08 00:53:26;;;;;;;23.38;10.40;;;;;;;-1.62;59.18;92398.63;2075004;69;20602;-79
2022/01/08 00:55:52;;;;;;;20.95;10.30;;;;;;;-1.67;58.80;92391.22;2074714;69;20164;-74
2022/01/08 00:58:18;;;;;;;25.27;10.30;;;;;;;-1.70;58.77;92379.22;2074951;69;20167;-72
2022/01/08 01:00:43;;;;;;;21.80;10.73;;;;;;;-1.66;59.89;92378.88;2071696;69;20177;-75
2022/01/08 01:03:09;;;;;;;24.13;10.55;;;;;;;-1.68;59.88;92384.94;2075127;69;20186;-76
2022/01/08 01:05:35;;;;;;;20.13;10.05;;;;;;;-1.78;59.23;92383.94;2074809;69;20143;-73
2022/01/08 01:08:01;;;;;;;21.08;9.63;;;;;;;-1.70;59.06;92384.00;2075085;69;20148;-68
2022/01/08 01:10:27;;;;;;;20.65;9.18;;;;;;;-1.74;58.70;92376.06;2071599;69;20144;-68
2022/01/08 01:12:53;;;;;;;18.23;8.13;;;;;;;-1.90;58.76;92380.72;2071679;69;20236;-68
2022/01/08 01:15:19;;;;;;;14.90;7.90;;;;;;;-1.87;58.50;92373.38;2074475;69;20249;-72
2022/01/08 01:17:46;;;;;;;16.40;7.70;;;;;;;-1.88;58.81;92369.13;2074691;69;20140;-70
2022/01/08 01:20:15;;;;;;;22.58;11.55;;;;;;;-2.01;59.61;92364.44;2071689;69;20227;-71
2022/01/08 01:22:48;;;;;;;19.30;9.95;;;;;;;-1.99;58.93;92361.13;2075040;69;20172;-71
2022/01/08 01:25:18;;;;;;;17.60;8.68;;;;;;;-1.96;59.58;92371.84;2075160;69;20144;-71
2022/01/08 01:30:31;;;;;;;19.98;9.48;;;;;;;-2.00;59.19;92368.66;2075268;69;20617;-76
2022/01/08 01:47:00;;;;;;;19.52;9.40;;;;;;;-2.21;59.88;92345.84;2074964;69;20487;-72
2022/01/08 01:49:15;;;;;;;19.70;9.00;;;;;;;-2.32;59.03;92333.78;2075131;69;20136;-72
2022/01/08 01:51:41;;;;;;;19.95;8.88;;;;;;;-2.27;59.42;92340.47;2074914;69;20136;-70
2022/01/08 01:54:07;;;;;;;18.23;8.63;;;;;;;-2.25;59.88;92335.13;2075065;69;20212;-72
2022/01/08 01:56:33;;;;;;;21.20;9.60;;;;;;;-2.28;59.25;92333.47;2071565;69;20471;-79
2022/01/08 01:58:59;;;;;;;18.52;9.38;;;;;;;-2.36;60.00;92333.38;2074831;69;20168;-78
2022/01/08 02:01:25;;;;;;;20.83;9.63;;;;;;;-2.53;61.30;92330.25;2074986;69;20136;-82
2022/01/08 02:03:51;;;;;;;22.08;9.50;;;;;;;-2.47;60.19;92328.13;2075136;69;20592;-71
2022/01/08 02:06:16;;;;;;;21.77;9.13;;;;;;;-2.46;59.29;92321.34;2074852;69;20156;-68
2022/01/08 02:08:42;;;;;;;19.70;9.70;;;;;;;-2.35;59.97;92325.84;2075086;69;20217;-68
2022/01/08 02:11:08;;;;;;;19.60;9.18;;;;;;;-2.35;59.55;92323.09;2075162;69;20239;-68
2022/01/08 02:13:35;;;;;;;21.05;9.13;;;;;;;-2.51;59.96;92324.97;2075005;69;20652;-68
2022/01/08 02:16:01;;;;;;;19.58;9.30;;;;;;;-2.41;60.06;92328.75;2074915;69;20158;-75
2022/01/08 02:18:28;;;;;;;20.85;9.55;;;;;;;-2.50;59.74;92312.66;2074940;69;20128;-80
2022/01/08 02:20:56;;;;;;;18.85;9.70;;;;;;;-2.44;60.71;92315.28;2074876;69;20148;-75
2022/01/08 02:23:22;;;;;;;20.15;10.10;;;;;;;-2.62;61.12;92314.19;2074996;69;20147;-76
2022/01/08 02:25:49;;;;;;;22.02;9.85;;;;;;;-2.58;60.49;92320.09;2075310;69;20136;-84
2022/01/08 02:28:16;;;;;;;19.08;9.13;;;;;;;-2.57;59.63;92303.06;2075135;69;20158;-77
2022/01/08 02:30:42;;;;;;;20.85;9.65;;;;;;;-2.52;60.26;92304.19;2074699;69;20265;-80
2022/01/08 02:33:08;;;;;;;17.92;8.90;;;;;;;-2.48;59.65;92301.09;2074353;69;20143;-73
2022/01/08 02:35:34;;;;;;;18.80;9.02;;;;;;;-2.76;62.26;92310.00;2074926;69;20175;-75
2022/01/08 02:38:00;;;;;;;19.25;9.43;;;;;;;-3.03;63.78;92315.56;2075003;69;20321;-70
2022/01/08 02:40:26;;;;;;;21.95;10.10;;;;;;;-2.80;61.76;92310.31;2075069;69;20235;-69
2022/01/08 02:43:03;;;;;;;20.25;9.52;;;;;;;-2.72;60.93;92316.66;2074826;69;20152;-71
2022/01/08 02:45:30;;;;;;;20.55;10.10;;;;;;;-2.76;61.61;92310.00;2075331;69;20147;-68
2022/01/08 02:47:57;;;;;;;24.88;9.75;;;;;;;-2.76;61.26;92301.72;2075137;69;20179;-70
2022/01/08 02:50:23;;;;;;;21.63;9.50;;;;;;;-2.74;61.70;92297.16;2074925;69;20150;-83
2022/01/08 02:52:50;;;;;;;19.15;9.15;;;;;;;-2.66;60.41;92292.47;2075075;69;20147;-77
2022/01/08 02:55:19;;;;;;;19.40;9.45;;;;;;;-2.73;61.11;92279.34;2074996;69;20140;-76
2022/01/08 02:57:46;;;;;;;20.13;9.65;;;;;;;-2.71;60.44;92273.31;2074925;69;20274;-81
2022/01/08 03:00:15;;;;;;;17.98;9.93;;;;;;;-2.86;62.32;92265.63;2074904;69;20152;-85
2022/01/08 03:02:45;;;;;;;17.92;10.18;;;;;;;-3.17;63.80;92257.00;2075055;69;20506;-81
2022/01/08 03:05:12;;;;;;;21.73;10.20;;;;;;;-3.09;63.63;92246.84;2074924;69;20156;-85
2022/01/08 03:07:39;;;;;;;20.15;10.10;;;;;;;-2.98;63.05;92256.13;2075196;69;20168;-77
2022/01/08 03:10:10;;;;;;;19.85;9.27;;;;;;;-2.85;61.68;92261.59;2075072;69;20209;-78
2022/01/08 03:12:43;;;;;;;17.53;8.53;;;;;;;-2.95;61.80;92268.81;2075077;69;20148;-80
2022/01/08 03:15:11;;;;;;;17.85;9.13;;;;;;;-2.95;62.44;92268.81;2071796;69;20765;-77
2022/01/08 03:17:37;;;;;;;20.00;9.55;;;;;;;-3.17;62.86;92256.28;2075073;69;20514;-74
2022/01/08 03:20:06;;;;;;;21.52;9.75;;;;;;;-3.03;62.99;92262.50;2074914;69;20227;-70
2022/01/08 03:22:32;;;;;;;22.38;9.57;;;;;;;-3.19;63.79;92261.59;2075155;69;20184;-69
2022/01/08 03:25:00;;;;;;;20.85;9.98;;;;;;;-3.19;63.25;92256.06;2075362;69;20143;-71
2022/01/08 03:27:25;;;;;;;20.83;9.90;;;;;;;-3.26;63.70;92257.44;2074961;69;20314;-69
2022/01/08 03:29:51;;;;;;;18.25;9.10;;;;;;;-3.17;63.99;92257.00;2075056;69;20160;-80
2022/01/08 03:32:16;;;;;;;17.95;9.00;;;;;;;-3.17;63.34;92251.50;2074999;69;20620;-82
2022/01/08 03:34:42;;;;;;;22.67;9.27;;;;;;;-3.12;61.83;92245.13;2075011;69;20191;-83
2022/01/08 03:37:08;;;;;;;16.35;8.55;;;;;;;-3.11;63.41;92248.66;2071603;69;20140;-78
2022/01/08 03:39:33;;;;;;;18.85;9.50;;;;;;;-3.08;63.46;92240.03;2074934;69;20152;-86
2022/01/08 03:41:59;;;;;;;19.10;8.80;;;;;;;-3.17;62.76;92240.50;2074913;69;20579;-73
2022/01/08 03:44:24;;;;;;;18.92;9.13;;;;;;;-3.37;64.20;92233.66;2074907;69;20259;-82
2022/01/08 03:46:50;;;;;;;17.88;9.32;;;;;;;-3.20;63.21;92238.81;2074710;69;20187;-81
2022/01/08 03:49:24;;;;;;;18.23;9.10;;;;;;;-3.21;63.55;92237.31;2074844;69;20155;-75
2022/01/08 03:51:52;;;;;;;21.05;10.23;;;;;;;-3.28;64.28;92226.25;2074904;69;20158;-76
2022/01/08 03:54:18;;;;;;;20.65;9.50;;;;;;;-3.24;63.11;92232.16;2071419;69;20855;-69
2022/01/08 03:56:44;;;;;;;19.02;9.55;;;;;;;-3.14;62.48;92230.44;2074977;69;20238;-68
2022/01/08 03:59:09;;;;;;;20.90;9.15;;;;;;;-3.31;63.46;92228.03;2075013;69;20158;-69
2022/01/08 04:01:35;;;;;;;17.38;9.05;;;;;;;-3.34;64.18;92237.38;2074905;69;20211;-82
2022/01/08 04:04:00;;;;;;;21.48;9.40;;;;;;;-3.19;62.82;92239.56;2074939;69;20175;-84
2022/01/08 04:06:26;;;;;;;20.30;8.93;;;;;;;-3.12;62.14;92236.88;2074843;69;20213;-84
2022/01/08 04:08:57;;;;;;;17.98;9.10;;;;;;;-3.09;62.62;92233.06;2074926;69;20155;-83
2022/01/08 04:11:24;;;;;;;17.60;9.00;;;;;;;-3.14;62.93;92239.44;2074886;69;20140;-81
2022/01/08 04:13:50;;;;;;;19.00;9.55;;;;;;;-3.32;65.23;92238.31;2074886;69;20227;-78
2022/01/08 04:16:20;;;;;;;22.77;10.10;;;;;;;-3.12;63.52;92245.13;2071382;69;20194;-69
2022/01/08 04:18:46;;;;;;;18.85;9.13;;;;;;;-3.07;63.34;92255.31;2074942;69;20291;-73
2022/01/08 04:23:59;;;;;;;18.08;9.23;;;;;;;-3.25;64.99;92244.41;2074898;69;20142;-83
2022/01/08 04:26:25;;;;;;;19.83;9.68;;;;;;;-3.18;63.82;92249.28;2074848;69;20160;-73
2022/01/08 04:28:54;;;;;;;20.90;10.15;;;;;;;-3.48;66.37;92242.16;2074654;69;20280;-85
2022/01/08 04:31:21;;;;;;;21.27;10.00;;;;;;;-3.25;64.65;92233.41;2074883;69;20140;-77
2022/01/08 04:33:47;;;;;;;21.45;10.60;;;;;;;-3.29;65.77;92220.00;2074879;69;20143;-69
2022/01/08 04:36:12;;;;;;;22.77;11.18;;;;;;;-3.23;65.93;92215.09;2074914;69;20144;-69
2022/01/08 04:38:38;;;;;;;21.40;10.68;;;;;;;-3.08;65.14;92215.25;2074918;69;20140;-69
2022/01/08 04:41:04;;;;;;;21.92;10.65;;;;;;;-2.97;64.61;92221.81;2075714;69;20152;-79
2022/01/08 04:43:30;;;;;;;20.55;10.75;;;;;;;-3.00;65.28;92233.88;2075494;69;20140;-76
2022/01/08 04:45:56;;;;;;;22.02;10.27;;;;;;;-2.86;63.83;92227.78;2075572;69;20176;-86
2022/01/08 04:48:23;;;;;;;18.67;10.23;;;;;;;-2.88;63.89;92235.13;2072083;69;20193;-79
2022/01/08 04:50:49;;;;;;;19.23;9.27;;;;;;;-2.85;64.29;92237.53;2075371;69;20178;-75
2022/01/08 04:53:15;;;;;;;19.83;9.27;;;;;;;-2.71;64.52;92240.25;2075557;69;20167;-74
2022/01/08 04:55:40;;;;;;;16.27;8.30;;;;;;;-2.63;63.74;92238.31;2075697;69;20206;-73
2022/01/08 04:58:06;;;;;;;22.95;8.70;;;;;;;-3.00;66.09;92231.88;2075570;69;20125;-81
2022/01/08 05:00:32;;;;;;;17.67;8.40;;;;;;;-3.10;66.31;92212.31;2075419;69;20609;-76
2022/01/08 05:02:59;;;;;;;17.50;8.88;;;;;;;-2.80;66.19;92216.63;2075512;69;20143;-79
2022/01/08 05:05:26;;;;;;;19.48;8.82;;;;;;;-2.62;65.63;92209.47;2075330;69;20235;-71
2022/01/08 05:07:52;;;;;;;17.73;9.05;;;;;;;-2.48;64.09;92210.88;2075454;69;20136;-69
2022/01/08 05:10:17;;;;;;;17.85;8.50;;;;;;;-2.48;64.45;92201.84;2072116;69;20151;-69
2022/01/08 05:12:43;;;;;;;17.25;8.55;;;;;;;-2.54;64.46;92209.53;2072050;69;20231;-86
2022/01/08 05:15:10;;;;;;;15.70;8.32;;;;;;;-2.58;64.26;92207.09;2076010;69;20217;-72
2022/01/08 05:17:38;;;;;;;16.25;8.40;;;;;;;-2.34;63.94;92212.28;2072598;69;20232;-85
2022/01/08 05:20:06;;;;;;;22.38;8.38;;;;;;;-2.21;63.57;92213.47;2075329;69;20164;-71
2022/01/08 05:22:49;;;;;;;15.25;8.55;;;;;;;-2.32;64.10;92206.22;2075401;69;20180;-76
2022/01/08 05:25:17;;;;;;;22.40;9.25;;;;;;;-2.39;65.24;92204.13;2072138;69;20140;-80
2022/01/08 05:27:43;;;;;;;20.83;8.38;;;;;;;-2.16;63.75;92205.06;2075430;69;20602;-77
2022/01/08 05:30:10;;;;;;;19.25;8.93;;;;;;;-2.14;63.85;92191.47;2075388;69;20267;-77
2022/01/08 05:32:36;;;;;;;17.10;8.48;;;;;;;-2.19;63.87;92194.38;2075434;69;20152;-75
2022/01/08 05:35:01;;;;;;;67.28;24.90;;;;;;;-2.22;64.31;92200.97;2075265;69;20147;-80
2022/01/08 05:37:27;;;;;;;62.00;22.20;;;;;;;-2.02;63.81;92196.69;2072153;69;20509;-82
2022/01/08 05:39:53;;;;;;;31.85;13.65;;;;;;;-1.99;63.55;92199.09;2075360;69;20151;-85
2022/01/08 05:42:19;;;;;;;31.05;12.75;;;;;;;-1.95;63.86;92190.50;2075420;69;20179;-69
2022/01/08 05:44:45;;;;;;;32.00;14.43;;;;;;;-2.05;64.21;92193.00;2075322;69;20144;-69
2022/01/08 05:47:11;;;;;;;31.13;12.90;;;;;;;-2.15;65.42;92205.81;2075287;69;20171;-69
2022/01/08 05:49:37;;;;;;;30.02;13.15;;;;;;;-1.98;64.88;92206.09;2071892;69;20140;-84
2022/01/08 05:52:03;;;;;;;27.73;12.15;;;;;;;-1.95;64.19;92193.25;2075360;69;20140;-80
2022/01/08 05:54:28;;;;;;;25.63;11.65;;;;;;;-1.80;63.14;92196.09;2075480;69;20159;-75
2022/01/08 05:56:54;;;;;;;25.23;11.38;;;;;;;-2.08;64.73;92189.31;2075353;69;20243;-75
2022/01/08 05:59:21;;;;;;;27.60;13.15;;;;;;;-1.90;63.92;92190.34;2075355;69;20201;-74
2022/01/08 06:01:47;;;;;;;26.25;12.65;;;;;;;-1.80;63.11;92174.75;2072175;69;20155;-82
2022/01/08 06:04:13;;;;;;;26.95;12.25;;;;;;;-1.84;63.43;92160.56;2071810;69;20143;-78
2022/01/08 06:06:40;;;;;;;29.70;12.80;;;;;;;-1.83;63.23;92161.31;2075270;69;20127;-83
2022/01/08 06:09:07;;;;;;;22.90;11.82;;;;;;;-1.81;63.58;92156.00;2075315;69;20223;-77
2022/01/08 06:11:32;;;;;;;17.83;8.38;;;;;;;-1.74;62.34;92155.31;2075348;69;20199;-85
2022/01/08 06:13:58;;;;;;;30.80;13.30;;;;;;;-1.89;64.12;92164.22;2075376;69;20224;-70
2022/01/08 06:16:24;;;;;;;39.67;16.83;;;;;;;-2.20;66.17;92179.09;2075377;69;20243;-69
2022/01/08 06:18:49;;;;;;;36.65;17.40;;;;;;;-2.11;65.96;92186.88;2075477;69;20567;-68
2022/01/08 06:21:15;;;;;;;39.97;18.08;;;;;;;-1.82;64.38;92182.13;2075158;69;20588;-83
2022/01/08 06:23:40;;;;;;;33.40;16.45;;;;;;;-1.86;64.32;92176.94;2075245;69;20155;-72
2022/01/08 06:26:07;;;;;;;31.60;15.50;;;;;;;-2.04;64.44;92183.44;2075466;69;20262;-76
2022/01/08 06:28:33;;;;;;;26.25;13.45;;;;;;;-1.90;64.52;92181.31;2075473;69;20148;-82
2022/01/08 06:30:59;;;;;;;27.88;13.70;;;;;;;-1.80;63.99;92176.78;2075475;69;20164;-79
2022/01/08 06:33:24;;;;;;;32.53;14.43;;;;;;;-1.74;63.15;92173.84;2075438;69;20147;-77
2022/01/08 06:35:51;;;;;;;26.80;12.80;;;;;;;-1.73;62.26;92159.53;2075293;69;20166;-76
2022/01/08 06:38:18;;;;;;;23.35;10.80;;;;;;;-1.69;63.32;92159.19;2075315;69;20147;-76
2022/01/08 06:40:45;;;;;;;18.73;9.55;;;;;;;-1.71;62.87;92162.47;2075296;69;20239;-72
2022/01/08 06:43:10;;;;;;;16.92;9.07;;;;;;;-1.61;62.46;92166.19;2075454;69;20179;-74
2022/01/08 06:45:36;;;;;;;19.27;9.10;;;;;;;-1.63;63.00;92176.31;2075285;69;20140;-70
2022/01/08 06:48:02;;;;;;;22.00;10.27;;;;;;;-2.14;65.78;92168.69;2075308;69;20673;-69
2022/01/08 06:50:28;;;;;;;17.67;9.10;;;;;;;-2.26;66.54;92176.50;2071872;69;20230;-69
2022/01/08 06:52:55;;;;;;;23.50;10.10;;;;;;;-1.92;65.00;92179.13;2071877;69;20515;-82
2022/01/08 06:55:21;;;;;;;20.48;9.43;;;;;;;-1.82;65.02;92185.59;2075181;69;20159;-83
2022/01/08 06:57:46;;;;;;;19.55;9.13;;;;;;;-1.89;64.94;92186.28;2075177;69;20147;-83
2022/01/08 07:00:12;;;;;;;18.90;9.48;;;;;;;-1.90;65.49;92208.91;2075238;69;20143;-78
2022/01/08 07:02:38;;;;;;;17.98;8.82;;;;;;;-1.76;65.35;92218.56;2074911;69;20621;-80
2022/01/08 07:05:04;;;;;;;20.15;8.88;;;;;;;-1.82;64.77;92223.50;2075148;69;20167;-80
2022/01/08 07:07:29;;;;;;;18.23;8.52;;;;;;;-1.63;64.23;92237.03;2075258;69;20164;-80
2022/01/08 07:09:55;;;;;;;16.00;8.20;;;;;;;-1.63;64.17;92248.81;2075395;69;20140;-85
2022/01/08 07:12:21;;;;;;;22.60;10.55;;;;;;;-1.71;64.37;92263.84;2075267;69;20617;-86
2022/01/08 07:14:46;;;;;;;24.40;12.35;;;;;;;-1.52;63.66;92266.34;2075296;69;20301;-79
2022/01/08 07:17:12;;;;;;;21.00;10.48;;;;;;;-1.43;63.54;92274.13;2075205;69;20640;-82
2022/01/08 07:19:37;;;;;;;20.38;7.47;;;;;;;-1.33;62.62;92269.59;2075071;69;20142;-85
2022/01/08 07:22:03;;;;;;;15.63;6.63;;;;;;;-1.39;61.58;92255.22;2075481;69;20158;-69
2022/01/08 07:24:29;;;;;;;27.38;11.50;;;;;;;-1.67;64.58;92250.44;2075169;69;20140;-82
2022/01/08 07:26:54;;;;;;;20.80;9.70;;;;;;;-1.46;63.68;92259.41;2075183;69;20204;-72
2022/01/08 07:29:20;;;;;;;28.58;13.85;;;;;;;-1.50;63.90;92259.03;2075283;69;20160;-80
2022/01/08 07:31:46;;;;;;;30.48;13.88;;;;;;;-1.72;65.91;92265.88;2071877;69;20139;-76
2022/01/08 07:34:11;;;;;;;32.75;13.10;;;;;;;-1.43;64.63;92261.06;2075258;69;20152;-77
2022/01/08 07:36:37;;;;;;;26.17;12.75;;;;;;;-1.31;64.10;92269.81;2075077;69;20143;-80
2022/01/08 07:39:03;;;;;;;28.10;13.73;;;;;;;-1.46;65.91;92267.69;2075316;69;20151;-83
2022/01/08 07:41:28;;;;;;;28.45;14.05;;;;;;;-1.30;64.11;92258.19;2075354;69;20156;-81
2022/01/08 07:43:54;;;;;;;32.67;13.57;;;;;;;-1.31;64.91;92248.44;2075230;69;20580;-85
2022/01/08 07:46:20;;;;;;;19.27;9.88;;;;;;;-1.41;64.76;92261.28;2075205;69;20486;-76
2022/01/08 07:48:46;;;;;;;26.73;12.32;;;;;;;-1.11;64.47;92257.19;2075189;69;20144;-76
2022/01/08 07:51:11;;;;;;;25.40;12.27;;;;;;;-0.98;63.61;92253.56;2075126;69;20205;-69
2022/01/08 07:53:37;;;;;;;23.70;10.45;;;;;;;-1.41;65.00;92275.09;2075411;69;20148;-70
2022/01/08 07:56:03;;;;;;;26.08;12.60;;;;;;;-1.54;65.98;92275.19;2075143;69;20152;-75
2022/01/08 07:58:29;;;;;;;25.00;12.25;;;;;;;-1.26;66.33;92266.13;2075396;69;20139;-79
2022/01/08 08:00:55;;;;;;;27.17;14.10;;;;;;;-1.18;66.50;92244.81;2075129;69;20144;-77
2022/01/08 08:03:21;;;;;;;28.45;12.82;;;;;;;-1.05;66.56;92238.44;2075113;69;20172;-81
2022/01/08 08:05:47;;;;;;;34.42;17.75;;;;;;;-1.33;67.09;92267.59;2074901;69;20144;-78
2022/01/08 08:08:17;;;;;;;29.73;14.02;;;;;;;-1.49;67.39;92276.31;2074981;69;20144;-79
2022/01/08 08:10:43;;;;;;;36.58;16.20;;;;;;;-1.01;65.26;92263.66;2075076;69;20140;-82
2022/01/08 08:13:09;;;;;;;32.65;14.02;;;;;;;-0.95;65.61;92271.81;2075101;69;20144;-77
2022/01/08 08:15:34;;;;;;;35.72;17.20;;;;;;;-1.07;66.25;92283.16;2075474;69;20155;-78
2022/01/08 08:18:00;;;;;;;43.22;20.40;;;;;;;-0.93;64.33;92288.56;2075766;69;20136;-78
2022/01/08 08:20:25;;;;;;;29.85;14.27;;;;;;;-0.69;64.81;92290.13;2075306;69;20140;-75
2022/01/08 08:22:51;;;;;;;32.85;16.10;;;;;;;-0.52;64.18;92282.81;2075448;69;20209;-71
2022/01/08 08:25:17;;;;;;;31.95;16.15;;;;;;;-0.42;62.71;92288.53;2075493;69;20152;-70
2022/01/08 08:27:43;;;;;;;25.65;12.75;;;;;;;-0.37;60.12;92282.09;2075673;69;20201;-77
2022/01/08 08:30:11;;;;;;;28.65;13.45;;;;;;;-0.34;61.51;92272.72;2075496;69;20140;-75
2022/01/08 08:32:37;;;;;;;23.38;12.00;;;;;;;-0.32;62.94;92269.38;2075547;69;20140;-81
2022/01/08 08:35:04;;;;;;;27.42;13.00;;;;;;;-0.23;62.04;92276.41;2075530;69;20155;-74
2022/01/08 08:37:29;;;;;;;20.50;10.75;;;;;;;-0.11;61.68;92280.28;2075561;69;20168;-84
2022/01/08 08:39:55;;;;;;;14.77;7.40;;;;;;;0.06;62.60;92282.53;2072203;69;20279;-82
2022/01/08 08:42:21;;;;;;;19.30;10.20;;;;;;;-0.03;62.63;92286.59;2075808;69;20152;-80
2022/01/08 08:44:46;;;;;;;18.48;8.90;;;;;;;0.20;62.64;92283.81;2076461;69;20239;-82
2022/01/08 08:47:12;;;;;;;14.77;7.57;;;;;;;0.29;62.46;92293.59;2075680;69;20136;-80
2022/01/08 08:49:38;;;;;;;13.60;6.88;;;;;;;0.45;60.82;92298.56;2075358;69;20154;-77
2022/01/08 08:52:04;;;;;;;9.95;5.10;;;;;;;0.56;60.63;92303.00;2075516;69;20155;-71
2022/01/08 08:54:29;;;;;;;7.35;3.70;;;;;;;0.70;60.76;92309.81;2075622;69;20132;-71
2022/01/08 08:56:55;;;;;;;8.32;3.70;;;;;;;0.72;59.73;92310.00;2075486;69;20227;-70
2022/01/08 08:59:23;;;;;;;6.07;3.78;;;;;;;0.19;60.91;92316.31;2075658;69;20256;-76
2022/01/08 09:01:48;;;;;;;10.18;4.20;;;;;;;0.27;60.00;92318.31;2075469;69;20514;-82
2022/01/08 09:04:14;;;;;;;7.55;3.22;;;;;;;0.21;59.67;92322.03;2075346;69;20144;-84
2022/01/08 09:06:39;;;;;;;12.90;6.18;;;;;;;0.24;59.25;92334.75;2075386;69;20147;-80
2022/01/08 09:09:05;;;;;;;7.95;4.25;;;;;;;0.36;58.82;92335.13;2075547;69;20613;-81
2022/01/08 09:11:31;;;;;;;11.25;5.40;;;;;;;0.64;57.84;92331.44;2075646;69;20179;-77
2022/01/08 09:13:56;;;;;;;7.53;4.30;;;;;;;0.80;57.95;92351.56;2075629;69;20155;-77
2022/01/08 09:16:22;;;;;;;11.48;3.92;;;;;;;0.85;57.62;92350.63;2072216;69;20140;-78
2022/01/08 09:18:48;;;;;;;5.85;3.63;;;;;;;0.89;58.07;92353.75;2075979;69;20140;-79
2022/01/08 09:21:14;;;;;;;6.82;3.90;;;;;;;0.98;57.34;92363.53;2075402;69;20148;-76
2022/01/08 09:23:40;;;;;;;7.72;3.75;;;;;;;1.04;57.31;92363.34;2075416;69;20140;-69
2022/01/08 09:26:06;;;;;;;6.53;3.38;;;;;;;1.00;57.28;92355.38;2075129;69;20205;-70
2022/01/08 09:28:32;;;;;;;6.38;3.60;;;;;;;0.83;58.25;92380.19;2072035;69;20144;-70
2022/01/08 09:30:58;;;;;;;13.18;7.95;;;;;;;0.12;62.59;92388.25;2075395;69;20617;-80
2022/01/08 09:33:25;;;;;;;12.75;7.55;;;;;;;0.65;60.72;92396.63;2075415;69;20159;-76
2022/01/08 09:35:52;;;;;;;12.45;7.03;;;;;;;0.89;59.98;92411.22;2075366;69;20159;-75
2022/01/08 09:38:18;;;;;;;11.30;5.93;;;;;;;0.81;61.98;92410.47;2075339;69;20140;-75
2022/01/08 09:40:44;;;;;;;10.40;5.82;;;;;;;0.71;60.90;92411.03;2075345;69;20144;-75
2022/01/08 09:43:10;;;;;;;12.27;6.82;;;;;;;0.76;61.14;92415.66;2075311;69;20219;-80
2022/01/08 09:45:36;;;;;;;9.85;5.07;;;;;;;0.71;62.54;92419.34;2075351;69;20473;-80
2022/01/08 09:48:02;;;;;;;12.98;6.20;;;;;;;0.69;61.33;92432.28;2069250;69;20685;-78
2022/01/08 09:50:28;;;;;;;16.75;9.02;;;;;;;0.85;61.46;92425.44;2075315;69;20726;-82
2022/01/08 09:52:57;;;;;;;14.38;6.45;;;;;;;0.82;61.43;92421.00;2075332;69;20144;-76
2022/01/08 09:55:27;;;;;;;9.55;4.80;;;;;;;0.85;64.90;92421.94;2075257;69;20128;-80
2022/01/08 09:57:54;;;;;;;6.30;3.75;;;;;;;0.61;64.08;92426.72;2075282;69;20152;-77
2022/01/08 10:00:20;;;;;;;11.90;7.85;;;;;;;0.65;65.35;92440.22;2075327;69;20211;-70
2022/01/08 10:02:46;;;;;;;8.02;5.18;;;;;;;0.38;67.53;92429.47;2075389;69;20144;-70
2022/01/08 10:05:17;;;;;;;20.65;10.75;;;;;;;0.35;67.09;92427.06;2071761;69;20155;-73
2022/01/08 10:07:59;;;;;;;20.25;9.82;;;;;;;0.47;68.43;92419.88;2075253;69;20606;-82
2022/01/08 10:10:27;;;;;;;23.83;13.35;;;;;;;0.68;68.50;92425.25;2075326;69;20144;-78
2022/01/08 10:13:01;;;;;;;23.55;12.50;;;;;;;0.81;67.24;92419.53;2075312;69;20143;-79
2022/01/08 10:18:30;;;;;;;11.68;7.50;;;;;;;0.73;69.53;92399.38;2075217;69;20152;-76
2022/01/08 10:20:57;;;;;;;10.38;6.22;;;;;;;1.06;70.28;92399.56;2075138;69;20642;-78
2022/01/08 10:23:25;;;;;;;16.50;9.85;;;;;;;1.29;71.00;92383.63;2071937;69;20151;-79
2022/01/08 10:26:00;;;;;;;16.33;9.23;;;;;;;1.42;69.69;92383.41;2075400;69;20163;-79
2022/01/08 10:28:41;;;;;;;12.40;7.60;;;;;;;1.59;68.99;92382.03;2075322;69;20197;-83
2022/01/08 10:31:17;;;;;;;9.77;5.93;;;;;;;1.73;68.89;92377.72;2072081;69;20132;-83
2022/01/08 10:34:05;;;;;;;9.18;5.97;;;;;;;2.02;68.36;92375.41;2075331;69;20140;-83
2022/01/08 10:36:35;;;;;;;12.70;6.07;;;;;;;2.28;67.13;92372.06;2075347;69;20562;-81
2022/01/08 10:39:05;;;;;;;7.57;5.10;;;;;;;2.46;66.55;92370.09;2075236;69;20143;-78
2022/01/08 10:41:30;;;;;;;10.20;5.80;;;;;;;2.42;67.50;92364.19;2071802;69;20180;-77
2022/01/08 10:44:15;;;;;;;6.10;4.20;;;;;;;2.76;65.62;92368.41;2075238;69;20721;-78
2022/01/08 10:46:59;;;;;;;6.13;4.28;;;;;;;3.03;65.54;92363.72;2075296;69;20251;-75
2022/01/08 10:49:33;;;;;;;9.38;6.03;;;;;;;3.52;67.02;92364.88;2075022;69;20236;-77
2022/01/08 10:52:09;;;;;;;7.35;4.90;;;;;;;3.99;68.01;92362.31;2075295;69;20147;-85
2022/01/08 10:54:37;;;;;;;7.13;5.05;;;;;;;4.40;63.89;92371.03;2075223;69;20514;-79
2022/01/08 10:57:06;;;;;;;8.07;4.93;;;;;;;4.51;62.04;92365.69;2075114;69;20654;-75
2022/01/08 10:59:32;;;;;;;10.02;6.20;;;;;;;4.66;61.67;92372.34;2075223;69;20163;-79
2022/01/08 11:02:02;;;;;;;9.73;5.97;;;;;;;4.51;60.71;92381.69;2075438;69;20151;-77
2022/01/08 11:04:36;;;;;;;5.95;3.70;;;;;;;3.97;62.22;92401.16;2075168;69;20225;-82
2022/01/08 11:07:11;;;;;;;5.72;2.97;;;;;;;4.29;61.26;92397.41;2076115;69;20152;-73
2022/01/08 11:09:39;;;;;;;5.15;3.65;;;;;;;4.31;61.27;92389.94;2076216;69;20136;-78
2022/01/08 11:12:07;;;;;;;6.72;4.20;;;;;;;4.21;61.90;92386.34;2075425;69;20144;-75
2022/01/08 11:17:37;;;;;;;8.50;5.80;;;;;;;2.93;64.93;92390.72;2075182;69;20143;-76
2022/01/08 11:20:17;;;;;;;7.15;4.60;;;;;;;2.89;66.16;92390.38;2075024;69;20168;-76
2022/01/08 11:22:47;;;;;;;10.80;5.82;;;;;;;3.30;64.09;92385.38;2071847;69;20142;-77
2022/01/08 11:25:17;;;;;;;10.23;5.85;;;;;;;3.21;65.12;92381.19;2075078;69;20148;-81
2022/01/08 11:27:58;;;;;;;6.10;4.03;;;;;;;3.39;64.11;92381.94;2071791;69;20146;-76
2022/01/08 11:30:27;;;;;;;9.57;4.47;;;;;;;3.83;63.33;92382.00;2075101;69;20219;-79
2022/01/08 11:32:59;;;;;;;8.32;5.03;;;;;;;4.05;62.08;92382.28;2075148;69;20140;-78
2022/01/08 11:35:25;;;;;;;11.80;6.05;;;;;;;4.24;62.60;92374.06;2075040;69;20151;-69
2022/01/08 11:37:54;;;;;;;7.82;4.68;;;;;;;4.23;62.78;92372.59;2075169;69;20664;-69
2022/01/08 11:40:22;;;;;;;16.40;10.82;;;;;;;3.92;61.20;92365.94;2075097;69;20144;-70
2022/01/08 11:42:48;;;;;;;2.55;1.80;;;;;;;3.66;60.30;92361.78;2075245;69;20183;-80
2022/01/08 11:45:27;;;;;;;3.20;2.00;;;;;;;3.90;60.05;92347.03;2074923;69;20227;-78
2022/01/08 11:47:57;;;;;;;2.83;1.70;;;;;;;4.08;59.61;92342.88;2074985;69;20152;-79
2022/01/08 11:50:28;;;;;;;3.08;2.03;;;;;;;4.41;58.53;92334.25;2071901;69;20140;-77
2022/01/08 11:53:26;;;;;;;2.70;1.92;;;;;;;4.48;58.70;92338.22;2075647;69;20148;-82